Time;durP1;ratioP1;P1;durP2;ratioP2;P2;SDS_P1;SDS_P2;PMS_P1;PMS_P2;Temp;Humidity;BMP_temperature;BMP_pressure;BME280_temperature;BME280_humidity;BME280_pressure;Samples;Min_cycle;Max_cycle;Signal;HPM_P1;HPM_P2
2024/01/31 00:00:41;;;;;;;7.65;6.85;;;24.50;60.10;;;;;;6158486;28;89045;-64
2024/01/31 00:03:43;;;;;;;7.78;6.97;;;24.50;60.20;;;;;;6157004;28;89059;-64
2024/01/31 00:06:49;;;;;;;7.07;6.45;;;24.50;60.20;;;;;;6158291;28;87986;-65
2024/01/31 00:09:52;;;;;;;6.82;6.22;;;24.50;60.20;;;;;;6161286;28;88995;-65
2024/01/31 00:12:55;;;;;;;6.88;6.28;;;24.50;60.20;;;;;;6158732;28;89027;-65
2024/01/31 00:15:57;;;;;;;6.72;6.07;;;24.50;60.20;;;;;;6157518;28;87258;-65
2024/01/31 00:18:59;;;;;;;6.50;6.00;;;24.50;60.20;;;;;;6157656;28;89006;-65
2024/01/31 00:22:01;;;;;;;7.20;6.47;;;24.50;60.30;;;;;;6157262;28;89127;-65
2024/01/31 00:25:03;;;;;;;6.88;6.18;;;24.50;60.30;;;;;;6148325;28;90375;-64
2024/01/31 00:28:07;;;;;;;7.00;6.32;;;24.50;60.30;;;;;;6157179;28;89160;-64
2024/01/31 00:31:11;;;;;;;7.00;6.28;;;24.50;60.30;;;;;;6148560;28;89230;-64
2024/01/31 00:34:13;;;;;;;6.38;5.75;;;24.50;60.30;;;;;;6157764;28;87833;-64
2024/01/31 00:37:15;;;;;;;6.80;6.20;;;24.50;60.40;;;;;;6149466;28;88993;-65
2024/01/31 00:40:17;;;;;;;6.78;6.18;;;24.50;60.40;;;;;;6155792;28;89076;-62
2024/01/31 00:43:21;;;;;;;6.00;5.50;;;24.40;60.30;;;;;;6156842;28;89418;-65
2024/01/31 00:46:23;;;;;;;6.70;6.10;;;24.50;60.50;;;;;;6155626;28;88373;-65
2024/01/31 00:49:24;;;;;;;6.30;5.80;;;24.50;61.40;;;;;;6150969;28;89078;-65
2024/01/31 00:52:27;;;;;;;6.50;5.90;;;24.50;60.60;;;;;;6155097;28;89629;-65
2024/01/31 00:55:29;;;;;;;6.10;5.60;;;24.40;60.50;;;;;;6156634;28;90005;-65
2024/01/31 00:58:34;;;;;;;5.97;5.40;;;24.50;60.50;;;;;;6154735;28;89114;-65
2024/01/31 01:01:36;;;;;;;6.20;5.65;;;24.40;60.40;;;;;;6155703;28;89159;-65
2024/01/31 01:04:38;;;;;;;6.22;5.63;;;24.50;60.50;;;;;;6155834;28;89178;-65
2024/01/31 01:07:40;;;;;;;5.88;5.30;;;24.50;60.40;;;;;;6157916;28;89277;-64
2024/01/31 01:10:42;;;;;;;6.68;5.82;;;24.50;60.50;;;;;;6156754;28;89092;-65
2024/01/31 01:13:47;;;;;;;6.50;5.90;;;24.50;60.30;;;;;;6163905;28;88085;-65
2024/01/31 01:16:49;;;;;;;5.63;5.13;;;24.50;60.40;;;;;;6146118;28;88584;-63
2024/01/31 01:19:51;;;;;;;5.85;5.35;;;24.50;60.40;;;;;;6156376;28;89173;-63
2024/01/31 01:22:55;;;;;;;6.35;5.38;;;24.50;60.50;;;;;;6155611;28;89250;-65
2024/01/31 01:25:57;;;;;;;50.67;27.80;;;24.50;60.80;;;;;;6151556;28;90334;-63
2024/01/31 01:29:00;;;;;;;37.80;18.73;;;24.50;62.50;;;;;;6150100;28;89165;-65
2024/01/31 01:32:02;;;;;;;15.20;9.88;;;24.50;63.40;;;;;;6153257;28;89128;-64
2024/01/31 01:35:05;;;;;;;13.25;9.07;;;24.50;60.60;;;;;;6153210;28;89179;-65
2024/01/31 01:38:07;;;;;;;11.32;7.75;;;24.50;59.80;;;;;;6152535;28;89586;-65
2024/01/31 01:41:09;;;;;;;9.27;7.03;;;24.50;59.40;;;;;;6153238;28;89028;-65
2024/01/31 01:44:14;;;;;;;9.32;7.40;;;24.50;59.10;;;;;;6152931;28;89114;-63
2024/01/31 01:47:17;;;;;;;8.73;7.03;;;24.50;59.00;;;;;;6153015;28;88532;-63
2024/01/31 01:50:20;;;;;;;8.55;6.95;;;24.50;59.00;;;;;;6151075;28;87997;-63
2024/01/31 01:53:22;;;;;;;7.57;6.78;;;24.50;59.00;;;;;;6151270;28;89122;-63
2024/01/31 01:56:24;;;;;;;7.90;7.13;;;24.50;59.00;;;;;;6150779;28;90129;-63
2024/01/31 01:59:28;;;;;;;56.45;29.40;;;24.50;58.70;;;;;;6148435;28;89087;-63
2024/01/31 02:02:31;;;;;;;20.13;11.75;;;24.50;61.20;;;;;;6154547;28;89285;-63
2024/01/31 02:05:32;;;;;;;13.73;9.73;;;24.50;59.30;;;;;;6156767;28;89007;-63
2024/01/31 02:08:34;;;;;;;11.80;8.40;;;24.50;58.90;;;;;;6160139;28;87972;-62
2024/01/31 02:11:37;;;;;;;9.50;7.75;;;24.60;58.80;;;;;;6151753;28;89144;-62
2024/01/31 02:14:40;;;;;;;12.35;8.20;;;24.50;58.50;;;;;;6157374;28;89278;-63
2024/01/31 02:17:42;;;;;;;8.35;7.43;;;24.50;58.40;;;;;;6156123;28;88295;-63
2024/01/31 02:20:44;;;;;;;9.30;7.35;;;24.50;58.40;;;;;;6153914;28;89214;-64
2024/01/31 02:23:48;;;;;;;9.75;6.90;;;24.50;58.40;;;;;;6156469;28;89191;-64
2024/01/31 02:26:50;;;;;;;8.60;7.18;;;24.50;58.30;;;;;;6156363;28;90209;-63
2024/01/31 02:29:52;;;;;;;8.98;7.30;;;24.50;58.10;;;;;;6156780;28;88018;-63
2024/01/31 02:32:56;;;;;;;9.10;7.20;;;24.50;58.20;;;;;;6155143;28;89179;-65
2024/01/31 02:35:58;;;;;;;8.48;6.70;;;24.50;58.20;;;;;;6150349;28;89430;-64
2024/01/31 02:39:03;;;;;;;7.63;6.30;;;24.50;58.50;;;;;;6157274;28;89145;-64
2024/01/31 02:42:05;;;;;;;6.85;6.15;;;24.50;58.70;;;;;;6155747;28;90384;-65
2024/01/31 02:45:08;;;;;;;9.38;7.07;;;24.50;59.10;;;;;;6144822;28;89110;-64
2024/01/31 02:48:10;;;;;;;9.55;7.13;;;24.50;59.10;;;;;;6154110;28;88361;-64
2024/01/31 02:51:12;;;;;;;7.45;6.57;;;24.50;59.20;;;;;;6155109;28;89054;-63
2024/01/31 02:54:15;;;;;;;8.77;6.88;;;24.50;59.20;;;;;;6156645;28;88032;-64
2024/01/31 02:57:17;;;;;;;10.27;7.50;;;24.50;59.40;;;;;;6158091;28;90092;-65
2024/01/31 03:00:19;;;;;;;8.07;6.78;;;24.50;59.40;;;;;;6156369;28;89457;-64
2024/01/31 03:03:21;;;;;;;8.05;6.70;;;24.50;59.50;;;;;;6157011;28;89093;-64
2024/01/31 03:06:23;;;;;;;7.47;6.78;;;24.50;59.50;;;;;;6156026;28;88903;-63
2024/01/31 03:09:27;;;;;;;8.68;6.85;;;24.50;59.50;;;;;;6152610;28;87977;-65
2024/01/31 03:12:29;;;;;;;8.23;7.25;;;24.50;59.60;;;;;;6154957;28;89254;-65
2024/01/31 03:15:33;;;;;;;8.50;7.32;;;24.50;59.60;;;;;;6156081;28;89215;-65
2024/01/31 03:18:34;;;;;;;8.27;7.32;;;24.50;59.70;;;;;;6158651;28;88341;-64
2024/01/31 03:21:36;;;;;;;8.13;7.28;;;24.50;59.80;;;;;;6161011;28;89356;-64
2024/01/31 03:24:40;;;;;;;7.93;7.13;;;24.50;59.90;;;;;;6157809;28;89429;-64
2024/01/31 03:27:43;;;;;;;8.57;7.68;;;24.50;59.90;;;;;;6156182;28;90004;-63
2024/01/31 03:30:45;;;;;;;8.85;7.40;;;24.50;60.00;;;;;;6149083;28;89145;-64
2024/01/31 03:33:47;;;;;;;7.93;7.13;;;24.50;60.00;;;;;;6149673;28;89080;-64
2024/01/31 03:36:49;;;;;;;8.65;7.55;;;24.50;60.10;;;;;;6155489;28;89124;-65
2024/01/31 03:39:52;;;;;;;8.90;8.00;;;24.40;60.10;;;;;;6151117;28;89014;-65
2024/01/31 03:42:54;;;;;;;7.70;6.90;;;24.40;60.10;;;;;;6159566;28;89497;-65
2024/01/31 03:45:56;;;;;;;8.05;7.25;;;24.50;60.10;;;;;;6161422;28;89136;-64
2024/01/31 03:48:58;;;;;;;8.13;7.32;;;24.50;60.20;;;;;;6161596;28;88284;-64
2024/01/31 03:52:00;;;;;;;7.97;7.18;;;24.50;60.30;;;;;;6165926;28;89091;-64
2024/01/31 03:55:04;;;;;;;8.43;6.95;;;24.40;60.30;;;;;;6162667;28;89564;-64
2024/01/31 03:58:06;;;;;;;8.23;7.38;;;24.50;60.20;;;;;;6157874;28;88943;-64
2024/01/31 04:01:08;;;;;;;8.13;7.28;;;24.50;60.10;;;;;;6156520;28;89193;-64
2024/01/31 04:04:10;;;;;;;8.15;7.22;;;24.50;60.10;;;;;;6146454;28;89137;-63
2024/01/31 04:07:12;;;;;;;8.90;7.65;;;24.50;60.10;;;;;;6150090;28;88974;-65
2024/01/31 04:10:15;;;;;;;9.77;7.53;;;24.50;60.10;;;;;;6144796;28;89095;-65
2024/01/31 04:13:18;;;;;;;7.88;7.03;;;24.50;60.10;;;;;;6146733;28;89271;-64
2024/01/31 04:16:20;;;;;;;7.68;6.97;;;24.50;60.10;;;;;;6154634;28;89118;-64
2024/01/31 04:19:22;;;;;;;8.23;7.38;;;24.60;60.10;;;;;;6158561;28;88414;-65
2024/01/31 04:22:24;;;;;;;8.18;7.38;;;24.60;60.10;;;;;;6158059;28;89483;-65
2024/01/31 04:25:27;;;;;;;7.97;7.18;;;24.60;60.00;;;;;;6160627;28;89131;-64
2024/01/31 04:28:30;;;;;;;7.75;6.95;;;24.60;59.30;;;;;;6156831;28;90374;-64
2024/01/31 04:31:32;;;;;;;7.43;6.72;;;24.60;59.20;;;;;;6157849;28;89136;-64
2024/01/31 04:34:35;;;;;;;7.60;6.90;;;24.60;59.20;;;;;;6158343;28;88965;-65
2024/01/31 04:37:37;;;;;;;7.45;6.78;;;24.60;59.20;;;;;;6149280;28;89178;-64
2024/01/31 04:40:40;;;;;;;6.90;6.20;;;24.60;59.30;;;;;;6157987;28;89163;-64
2024/01/31 04:43:43;;;;;;;7.50;6.47;;;24.60;59.30;;;;;;6147043;28;89360;-64
2024/01/31 04:46:46;;;;;;;6.93;6.32;;;24.60;59.30;;;;;;6147532;28;89988;-64
2024/01/31 04:49:48;;;;;;;7.40;6.70;;;24.60;59.30;;;;;;6157460;28;88333;-64
2024/01/31 04:52:50;;;;;;;7.68;6.90;;;24.70;59.30;;;;;;6160454;28;88035;-64
2024/01/31 04:55:53;;;;;;;7.85;7.05;;;24.70;59.40;;;;;;6153693;28;89091;-64
2024/01/31 04:58:55;;;;;;;7.10;6.43;;;24.60;59.40;;;;;;6154989;28;89970;-64
2024/01/31 05:01:57;;;;;;;8.10;6.60;;;24.70;60.10;;;;;;6162992;28;88109;-64
2024/01/31 05:04:59;;;;;;;7.53;6.53;;;24.70;59.40;;;;;;6155495;28;89051;-64
2024/01/31 05:08:01;;;;;;;7.60;6.75;;;24.70;59.40;;;;;;6158543;28;89120;-64
2024/01/31 05:11:05;;;;;;;6.65;5.97;;;24.70;59.50;;;;;;6158060;28;89075;-64
2024/01/31 05:14:07;;;;;;;7.18;6.28;;;24.70;59.50;;;;;;6156652;28;89138;-64
2024/01/31 05:17:10;;;;;;;7.47;6.78;;;24.70;59.50;;;;;;6155490;28;89014;-64
2024/01/31 05:20:12;;;;;;;7.00;6.40;;;24.70;59.50;;;;;;6158675;28;86972;-64
2024/01/31 05:23:14;;;;;;;8.32;6.60;;;24.70;59.60;;;;;;6146313;28;89097;-64
2024/01/31 05:26:19;;;;;;;7.70;6.60;;;24.70;59.60;;;;;;6147652;28;89192;-64
2024/01/31 05:29:21;;;;;;;7.07;6.38;;;24.70;59.60;;;;;;6155213;28;90080;-65
2024/01/31 05:32:23;;;;;;;7.07;6.35;;;24.70;59.60;;;;;;6155980;28;89053;-64
2024/01/31 05:35:25;;;;;;;6.93;6.30;;;24.70;59.60;;;;;;6155876;28;89614;-65
2024/01/31 05:38:27;;;;;;;6.80;6.18;;;24.70;59.70;;;;;;6154561;28;87692;-64
2024/01/31 05:41:30;;;;;;;7.07;6.40;;;24.70;59.70;;;;;;6160789;28;91207;-65
2024/01/31 05:44:32;;;;;;;6.78;6.10;;;24.70;59.70;;;;;;6152781;28;89105;-64
2024/01/31 05:47:35;;;;;;;7.10;6.40;;;24.70;59.70;;;;;;6144564;28;88969;-65
2024/01/31 05:50:37;;;;;;;6.57;5.95;;;24.70;59.70;;;;;;6159119;28;88378;-64
2024/01/31 05:53:39;;;;;;;6.40;5.80;;;24.70;59.70;;;;;;6161075;28;89032;-65
2024/01/31 05:56:42;;;;;;;7.05;6.35;;;24.70;59.70;;;;;;6150023;28;89114;-65
2024/01/31 05:59:44;;;;;;;6.53;5.72;;;24.70;59.80;;;;;;6161659;28;90151;-65
2024/01/31 06:02:46;;;;;;;6.38;5.78;;;24.70;59.70;;;;;;6153672;28;89039;-65
2024/01/31 06:05:48;;;;;;;6.47;5.90;;;24.70;59.70;;;;;;6164966;28;87931;-64
2024/01/31 06:08:50;;;;;;;6.50;5.90;;;24.80;59.70;;;;;;6160661;28;89349;-64
2024/01/31 06:11:54;;;;;;;6.47;5.88;;;24.80;59.70;;;;;;6156206;28;89074;-64
2024/01/31 06:14:56;;;;;;;6.47;5.88;;;24.80;59.70;;;;;;6152098;28;89083;-65
2024/01/31 06:17:58;;;;;;;14.30;5.90;;;24.80;59.60;;;;;;6156911;28;89021;-64
2024/01/31 06:21:00;;;;;;;8.43;6.60;;;24.80;59.60;;;;;;6164480;28;87269;-64
2024/01/31 06:24:02;;;;;;;6.40;5.80;;;24.80;59.60;;;;;;6153784;28;89185;-65
2024/01/31 06:27:05;;;;;;;6.30;5.70;;;24.80;59.60;;;;;;6155112;28;88970;-64
2024/01/31 06:30:08;;;;;;;6.68;6.00;;;24.80;59.60;;;;;;6155304;28;90099;-64
2024/01/31 06:33:10;;;;;;;6.07;5.57;;;24.80;59.60;;;;;;6150282;28;89386;-66
2024/01/31 06:36:12;;;;;;;6.60;5.90;;;24.80;59.60;;;;;;6160365;28;88677;-64
2024/01/31 06:39:14;;;;;;;6.20;5.63;;;24.80;59.60;;;;;;6144390;28;87049;-65
2024/01/31 06:42:18;;;;;;;6.25;5.65;;;24.80;59.60;;;;;;6156259;28;88992;-64
2024/01/31 06:45:20;;;;;;;6.43;5.82;;;24.80;59.70;;;;;;6154677;28;89222;-64
2024/01/31 06:48:23;;;;;;;6.22;5.63;;;24.80;59.70;;;;;;6152064;28;89370;-65
2024/01/31 06:51:25;;;;;;;6.10;5.53;;;24.70;60.40;;;;;;6167457;28;88510;-63
2024/01/31 06:54:27;;;;;;;6.30;5.65;;;24.80;59.70;;;;;;6160536;28;89118;-65
2024/01/31 06:57:33;;;;;;;5.80;5.30;;;24.80;59.70;;;;;;6158715;28;89161;-65
2024/01/31 07:00:35;;;;;;;6.18;5.57;;;24.80;59.70;;;;;;6158865;28;90206;-65
2024/01/31 07:03:37;;;;;;;7.50;5.57;;;24.80;59.70;;;;;;6158069;28;89203;-64
2024/01/31 07:06:38;;;;;;;6.10;5.60;;;24.80;59.70;;;;;;6160654;28;89327;-64
2024/01/31 07:09:40;;;;;;;5.82;5.30;;;24.80;59.70;;;;;;6158831;28;89401;-64
2024/01/31 07:12:44;;;;;;;5.45;4.95;;;24.80;59.70;;;;;;6158732;28;89110;-64
2024/01/31 07:15:46;;;;;;;5.85;5.35;;;24.80;59.70;;;;;;6152946;28;89055;-64
2024/01/31 07:18:48;;;;;;;5.85;5.35;;;24.80;59.70;;;;;;6170663;28;90146;-64
2024/01/31 07:21:50;;;;;;;5.57;5.07;;;24.80;59.70;;;;;;6162161;28;88314;-65
2024/01/31 07:24:52;;;;;;;5.82;5.32;;;24.80;59.70;;;;;;6159312;28;87975;-64
2024/01/31 07:27:55;;;;;;;6.28;5.68;;;24.80;59.70;;;;;;6161601;28;89143;-64
2024/01/31 07:30:57;;;;;;;6.47;5.63;;;24.80;59.80;;;;;;6158049;28;90014;-64
2024/01/31 07:33:59;;;;;;;5.78;5.28;;;24.80;59.70;;;;;;6148294;28;89566;-64
2024/01/31 07:37:03;;;;;;;6.15;5.55;;;24.80;59.70;;;;;;6152141;28;89205;-64
2024/01/31 07:40:09;;;;;;;5.60;5.10;;;24.80;59.80;;;;;;6156093;28;89217;-65
2024/01/31 07:43:13;;;;;;;5.78;5.28;;;24.80;59.70;;;;;;6156228;28;89028;-65
2024/01/31 07:46:15;;;;;;;6.75;5.70;;;24.80;59.70;;;;;;6163996;28;89264;-64
2024/01/31 07:49:17;;;;;;;6.00;5.50;;;24.80;59.80;;;;;;6139887;28;89105;-65
2024/01/31 07:52:19;;;;;;;5.97;5.47;;;24.80;59.70;;;;;;6159006;28;88325;-65
2024/01/31 07:55:21;;;;;;;5.75;5.25;;;24.80;59.70;;;;;;6163442;28;87964;-64
2024/01/31 07:58:24;;;;;;;5.97;5.40;;;24.80;59.70;;;;;;6156520;28;89064;-65
2024/01/31 08:01:26;;;;;;;5.90;5.40;;;24.90;59.80;;;;;;6157111;28;88943;-65
2024/01/31 08:04:28;;;;;;;5.50;5.00;;;24.90;59.80;;;;;;6161461;28;87957;-65
2024/01/31 08:07:30;;;;;;;5.47;4.97;;;24.90;59.80;;;;;;6156966;28;89072;-65
2024/01/31 08:10:32;;;;;;;5.68;5.18;;;24.90;59.80;;;;;;6157460;28;89142;-64
2024/01/31 08:13:36;;;;;;;5.75;5.25;;;24.90;59.80;;;;;;6157977;28;88331;-65
2024/01/31 08:16:38;;;;;;;5.22;4.72;;;24.80;59.80;;;;;;6153469;28;89108;-65
2024/01/31 08:19:40;;;;;;;5.95;5.45;;;24.90;59.90;;;;;;6169876;28;89314;-64
2024/01/31 08:22:41;;;;;;;5.93;5.32;;;24.90;59.90;;;;;;6159269;28;88329;-65
2024/01/31 08:25:43;;;;;;;5.78;5.20;;;24.80;59.90;;;;;;6158151;28;87950;-64
2024/01/31 08:28:47;;;;;;;5.40;4.90;;;24.80;59.90;;;;;;6157276;28;89074;-65
2024/01/31 08:31:49;;;;;;;5.85;5.35;;;24.80;59.90;;;;;;6156940;28;88921;-65
2024/01/31 08:34:51;;;;;;;5.93;5.43;;;24.80;60.00;;;;;;6147341;28;87972;-65
2024/01/31 08:37:54;;;;;;;6.47;5.60;;;24.80;60.00;;;;;;6161627;28;89334;-65
2024/01/31 08:40:56;;;;;;;5.90;5.30;;;24.80;60.00;;;;;;6145767;28;89408;-65
2024/01/31 08:44:00;;;;;;;5.70;5.20;;;24.80;60.10;;;;;;6160924;28;89412;-65
2024/01/31 08:47:02;;;;;;;5.53;5.03;;;24.80;60.10;;;;;;6157180;28;88898;-65
2024/01/31 08:50:04;;;;;;;5.57;5.03;;;24.70;60.20;;;;;;6157347;28;89170;-65
2024/01/31 08:53:06;;;;;;;5.57;5.07;;;24.70;60.20;;;;;;6157896;28;87563;-65
2024/01/31 08:56:08;;;;;;;5.30;4.90;;;24.70;60.30;;;;;;6157750;28;89126;-65
2024/01/31 08:59:12;;;;;;;5.47;4.97;;;24.70;60.40;;;;;;6157288;28;89029;-65
2024/01/31 09:02:14;;;;;;;5.47;4.97;;;24.70;60.50;;;;;;6157670;28;90047;-65
2024/01/31 09:05:16;;;;;;;5.72;5.20;;;24.70;60.60;;;;;;6157558;28;89061;-64
2024/01/31 09:08:18;;;;;;;5.80;5.20;;;24.60;60.60;;;;;;6158382;28;89008;-65
2024/01/31 09:11:20;;;;;;;6.00;4.90;;;24.60;60.60;;;;;;6150187;28;89342;-65
2024/01/31 09:14:23;;;;;;;5.75;5.25;;;24.70;60.70;;;;;;6156087;28;89330;-65
2024/01/31 09:17:25;;;;;;;5.45;4.95;;;24.60;60.60;;;;;;6151320;28;89040;-64
2024/01/31 09:20:27;;;;;;;5.40;4.90;;;24.60;60.70;;;;;;6157081;28;89201;-65
2024/01/31 09:23:30;;;;;;;5.28;4.88;;;24.50;60.60;;;;;;6157065;28;88315;-65
2024/01/31 09:26:32;;;;;;;5.50;5.00;;;24.60;60.60;;;;;;6171115;28;89278;-65
2024/01/31 09:29:35;;;;;;;5.40;4.90;;;24.60;60.60;;;;;;6156590;28;89157;-65
2024/01/31 09:32:37;;;;;;;5.60;5.10;;;24.60;60.50;;;;;;6157545;28;90016;-65
2024/01/31 09:35:40;;;;;;;5.25;4.75;;;24.60;60.60;;;;;;6156936;28;88984;-65
2024/01/31 09:38:42;;;;;;;5.30;4.90;;;24.60;60.60;;;;;;6156147;28;89079;-65
2024/01/31 09:41:44;;;;;;;5.43;4.93;;;24.60;60.60;;;;;;6153524;28;89001;-65
2024/01/31 09:44:47;;;;;;;5.55;5.05;;;24.60;60.50;;;;;;6152200;28;89273;-65
2024/01/31 09:47:50;;;;;;;5.75;5.18;;;24.60;60.50;;;;;;6153255;28;89141;-65
2024/01/31 09:50:52;;;;;;;5.10;4.60;;;24.70;60.60;;;;;;6156692;28;89000;-63
2024/01/31 09:53:59;;;;;;;5.13;4.72;;;24.60;60.60;;;;;;6157239;28;87237;-65
2024/01/31 09:57:02;;;;;;;5.40;4.90;;;24.70;60.60;;;;;;6158260;28;89130;-65
2024/01/31 10:00:08;;;;;;;5.38;4.88;;;24.60;60.50;;;;;;6157512;28;89057;-64
2024/01/31 10:03:10;;;;;;;5.20;4.80;;;24.70;60.60;;;;;;6155719;28;90257;-64
2024/01/31 10:06:12;;;;;;;5.30;4.80;;;24.70;60.60;;;;;;6156351;28;89166;-64
2024/01/31 10:09:14;;;;;;;4.90;4.50;;;24.70;60.50;;;;;;6153523;28;88969;-65
2024/01/31 10:12:17;;;;;;;5.68;5.18;;;24.70;60.50;;;;;;6155776;28;89556;-64
2024/01/31 10:15:21;;;;;;;5.47;4.97;;;24.70;60.50;;;;;;6154408;28;88760;-64
2024/01/31 10:18:27;;;;;;;5.15;4.70;;;24.70;60.50;;;;;;6148313;28;90432;-65
2024/01/31 10:21:29;;;;;;;5.20;4.80;;;24.80;60.50;;;;;;6150410;28;88961;-65
2024/01/31 10:24:31;;;;;;;5.85;5.10;;;24.70;60.50;;;;;;6162186;28;88375;-65
2024/01/31 10:27:35;;;;;;;5.30;4.90;;;24.70;60.40;;;;;;6151628;28;88959;-65
2024/01/31 10:30:44;;;;;;;6.28;5.28;;;24.70;60.50;;;;;;6158611;28;87994;-64
2024/01/31 10:33:48;;;;;;;6.00;5.40;;;24.80;60.50;;;;;;6163678;28;89972;-64
2024/01/31 10:36:50;;;;;;;6.10;5.50;;;24.80;60.50;;;;;;6155895;28;90532;-65
2024/01/31 10:39:53;;;;;;;5.97;5.38;;;24.80;60.50;;;;;;6159562;28;89593;-64
2024/01/31 10:42:55;;;;;;;5.47;4.97;;;24.80;60.50;;;;;;6159915;28;89114;-65
2024/01/31 10:45:59;;;;;;;5.35;4.85;;;24.70;60.40;;;;;;6164844;28;89456;-65
2024/01/31 10:49:00;;;;;;;5.72;5.15;;;24.80;60.50;;;;;;6167742;28;88439;-65
2024/01/31 10:52:07;;;;;;;5.60;5.10;;;24.80;60.50;;;;;;6158940;28;89080;-65
2024/01/31 10:55:11;;;;;;;5.40;4.90;;;24.80;60.50;;;;;;6159367;28;88218;-65
2024/01/31 10:58:13;;;;;;;6.00;5.50;;;24.80;60.50;;;;;;6160655;28;89390;-65
2024/01/31 11:01:17;;;;;;;5.25;4.85;;;24.80;60.50;;;;;;6158793;28;89449;-65
2024/01/31 11:04:19;;;;;;;5.20;4.80;;;24.80;60.50;;;;;;6166275;28;90048;-65
2024/01/31 11:07:21;;;;;;;5.20;4.70;;;24.80;60.60;;;;;;6155951;28;88906;-65
2024/01/31 11:10:26;;;;;;;5.68;5.15;;;24.80;60.60;;;;;;6150646;28;89146;-64
2024/01/31 11:13:28;;;;;;;5.40;4.90;;;24.80;60.60;;;;;;6160040;28;89092;-65
2024/01/31 11:16:31;;;;;;;5.43;4.93;;;24.80;60.70;;;;;;6158916;28;89116;-64
2024/01/31 11:19:37;;;;;;;5.25;4.75;;;24.80;60.70;;;;;;6162888;28;89260;-65
2024/01/31 11:22:41;;;;;;;5.47;4.93;;;24.80;61.60;;;;;;6158723;28;89069;-64
2024/01/31 11:25:44;;;;;;;5.40;4.90;;;24.80;60.70;;;;;;6162753;28;87232;-64
2024/01/31 11:28:46;;;;;;;5.18;4.75;;;24.80;60.70;;;;;;6157517;28;89437;-64
2024/01/31 11:31:49;;;;;;;4.90;4.50;;;24.90;60.80;;;;;;6159994;28;89015;-64
2024/01/31 11:34:59;;;;;;;5.28;4.80;;;24.80;60.60;;;;;;6160082;28;89007;-64
2024/01/31 11:38:02;;;;;;;5.65;5.07;;;24.80;60.70;;;;;;6158199;28;89062;-64
2024/01/31 11:41:04;;;;;;;5.30;4.80;;;24.90;60.80;;;;;;6158307;28;89359;-65
2024/01/31 11:44:06;;;;;;;5.28;4.78;;;24.90;60.80;;;;;;6159523;28;89358;-63
2024/01/31 11:47:09;;;;;;;5.90;5.30;;;24.90;60.80;;;;;;6158844;28;89026;-62
2024/01/31 11:50:11;;;;;;;5.35;4.85;;;24.90;60.80;;;;;;6164859;28;88893;-63
2024/01/31 11:53:14;;;;;;;5.38;4.88;;;24.90;60.80;;;;;;6158099;28;89141;-63
2024/01/31 11:56:16;;;;;;;5.30;4.80;;;24.90;60.80;;;;;;6164452;28;88301;-62
2024/01/31 11:59:18;;;;;;;5.40;4.90;;;24.90;60.80;;;;;;6153286;28;89030;-63
2024/01/31 12:02:22;;;;;;;4.80;4.40;;;24.90;60.80;;;;;;6157871;28;89146;-65
2024/01/31 12:05:24;;;;;;;5.43;4.53;;;24.90;60.80;;;;;;6150115;28;90149;-65
2024/01/31 12:08:27;;;;;;;5.10;4.60;;;24.90;61.20;;;;;;6159276;28;89312;-64
2024/01/31 12:11:29;;;;;;;4.75;4.35;;;24.90;60.80;;;;;;6177620;28;89164;-65
2024/01/31 12:14:31;;;;;;;5.03;4.63;;;24.90;60.80;;;;;;6160472;28;89319;-65
2024/01/31 12:17:35;;;;;;;6.43;5.28;;;24.90;60.80;;;;;;6162436;28;89127;-65
2024/01/31 12:20:37;;;;;;;5.38;4.88;;;24.90;60.80;;;;;;6165328;28;89139;-65
2024/01/31 12:23:39;;;;;;;5.65;5.15;;;24.90;61.00;;;;;;6156421;28;89446;-65
2024/01/31 12:26:41;;;;;;;6.18;5.57;;;24.90;60.90;;;;;;6156097;28;88706;-65
2024/01/31 12:29:46;;;;;;;7.22;6.53;;;24.90;60.90;;;;;;6160853;28;87048;-65
2024/01/31 12:32:49;;;;;;;8.35;7.20;;;24.90;61.00;;;;;;6153725;28;89211;-65
2024/01/31 12:35:51;;;;;;;9.07;7.78;;;24.90;61.00;;;;;;6153714;28;89964;-65
2024/01/31 12:38:53;;;;;;;9.70;8.68;;;24.90;61.00;;;;;;6150506;28;88999;-65
2024/01/31 12:41:55;;;;;;;11.05;9.90;;;24.90;61.00;;;;;;6152652;28;89028;-65
2024/01/31 12:44:57;;;;;;;14.07;10.73;;;24.90;61.00;;;;;;6156777;28;89149;-65
2024/01/31 12:48:01;;;;;;;13.88;11.48;;;24.90;61.00;;;;;;6155925;28;89073;-64
2024/01/31 12:51:03;;;;;;;15.23;13.35;;;24.90;61.00;;;;;;6152235;28;87965;-65
2024/01/31 12:54:05;;;;;;;16.77;14.15;;;24.90;61.00;;;;;;6155009;28;89003;-65
2024/01/31 12:57:08;;;;;;;16.95;14.75;;;24.90;61.00;;;;;;6157374;28;88654;-65
2024/01/31 13:00:10;;;;;;;19.25;15.57;;;24.90;61.10;;;;;;6149702;28;89042;-65
2024/01/31 13:03:14;;;;;;;19.00;15.23;;;24.90;61.10;;;;;;6153030;28;89388;-65
2024/01/31 13:06:16;;;;;;;21.45;17.35;;;24.90;61.10;;;;;;6156267;28;90003;-65
2024/01/31 13:09:18;;;;;;;23.55;17.67;;;24.90;61.10;;;;;;6156204;28;89401;-65
2024/01/31 13:12:20;;;;;;;23.70;19.15;;;24.90;61.10;;;;;;6156221;28;89217;-65
2024/01/31 13:15:24;;;;;;;24.15;18.83;;;24.90;61.10;;;;;;6155224;28;89161;-65
2024/01/31 13:18:27;;;;;;;23.48;18.88;;;24.90;62.00;;;;;;6160666;28;89164;-65
2024/01/31 13:21:29;;;;;;;23.83;20.02;;;24.90;61.10;;;;;;6163710;28;89078;-65
2024/01/31 13:24:35;;;;;;;23.48;20.02;;;24.90;61.10;;;;;;6160261;28;89462;-65
2024/01/31 13:27:37;;;;;;;25.55;20.77;;;24.90;61.10;;;;;;6155951;28;88331;-65
2024/01/31 13:30:39;;;;;;;24.08;20.17;;;24.90;61.10;;;;;;6154545;28;89145;-64
2024/01/31 13:33:42;;;;;;;26.17;21.30;;;24.90;61.10;;;;;;6157642;28;89078;-64
2024/01/31 13:36:44;;;;;;;26.63;21.48;;;24.90;61.10;;;;;;6155250;28;90442;-64
2024/01/31 13:39:46;;;;;;;27.80;22.50;;;24.90;61.10;;;;;;6153858;28;87918;-65
2024/01/31 13:42:50;;;;;;;26.85;21.15;;;24.90;61.10;;;;;;6154853;28;89052;-65
2024/01/31 13:45:52;;;;;;;25.50;21.95;;;24.90;61.20;;;;;;6162031;28;89457;-65
2024/01/31 13:48:57;;;;;;;27.13;21.88;;;24.90;61.30;;;;;;6150625;28;89054;-65
2024/01/31 13:51:59;;;;;;;25.67;21.90;;;24.90;61.30;;;;;;6153888;28;89073;-66
2024/01/31 13:55:01;;;;;;;26.80;21.75;;;24.90;61.30;;;;;;6158318;28;89152;-65
2024/01/31 13:58:03;;;;;;;28.08;22.02;;;24.90;61.50;;;;;;6158990;28;88455;-65
2024/01/31 14:01:05;;;;;;;29.48;22.65;;;24.90;61.60;;;;;;6161884;28;89153;-65
2024/01/31 14:04:08;;;;;;;31.45;23.52;;;24.90;61.80;;;;;;6154612;28;89277;-65
2024/01/31 14:07:10;;;;;;;28.98;21.70;;;24.90;62.20;;;;;;6169148;28;90417;-65
2024/01/31 14:10:12;;;;;;;29.27;21.98;;;24.90;62.40;;;;;;6158454;28;89349;-65
2024/01/31 14:13:14;;;;;;;30.88;21.88;;;24.90;62.70;;;;;;6157696;28;89113;-65
2024/01/31 14:16:16;;;;;;;31.13;22.35;;;24.90;62.80;;;;;;6158964;28;89446;-65
2024/01/31 14:19:20;;;;;;;31.00;22.00;;;24.90;62.80;;;;;;6161239;28;89082;-65
2024/01/31 14:22:22;;;;;;;30.25;21.42;;;24.90;63.00;;;;;;6160819;28;89166;-65
2024/01/31 14:25:24;;;;;;;28.10;20.90;;;24.90;63.00;;;;;;6161404;28;88981;-65
2024/01/31 14:28:26;;;;;;;27.77;20.80;;;24.90;63.00;;;;;;6160136;28;86452;-65
2024/01/31 14:31:28;;;;;;;29.88;20.80;;;24.80;62.90;;;;;;6159687;28;89496;-65
2024/01/31 14:34:31;;;;;;;28.75;21.10;;;24.90;62.90;;;;;;6157770;28;89145;-65
2024/01/31 14:37:33;;;;;;;32.40;21.58;;;24.90;62.90;;;;;;6153433;28;89972;-64
2024/01/31 14:40:35;;;;;;;26.52;19.50;;;24.90;62.90;;;;;;6157034;28;89097;-66
2024/01/31 14:43:37;;;;;;;25.63;18.70;;;24.90;62.80;;;;;;6158001;28;89028;-66
2024/01/31 14:46:40;;;;;;;26.42;19.30;;;24.90;62.80;;;;;;6163401;28;89037;-65
2024/01/31 14:49:44;;;;;;;28.48;19.13;;;24.90;62.70;;;;;;6155329;28;88971;-65
2024/01/31 14:52:46;;;;;;;26.17;18.38;;;24.90;62.70;;;;;;6159599;28;89078;-65
2024/01/31 14:55:48;;;;;;;24.98;18.83;;;24.90;62.70;;;;;;6160622;28;89426;-66
2024/01/31 14:58:50;;;;;;;27.15;19.13;;;24.90;62.60;;;;;;6164385;28;87225;-65
2024/01/31 15:01:54;;;;;;;24.67;18.80;;;24.90;62.60;;;;;;6168140;28;89091;-65
2024/01/31 15:04:57;;;;;;;26.15;18.45;;;24.90;62.50;;;;;;6181299;28;89375;-65
2024/01/31 15:07:59;;;;;;;26.83;18.92;;;24.90;62.50;;;;;;6169389;28;89993;-65
2024/01/31 15:11:01;;;;;;;25.77;18.55;;;24.90;62.50;;;;;;6158181;28;89126;-66
2024/01/31 15:14:04;;;;;;;24.90;17.33;;;24.90;62.50;;;;;;6159089;28;89158;-65
2024/01/31 15:17:06;;;;;;;22.33;16.75;;;24.90;62.50;;;;;;6164005;28;89133;-65
2024/01/31 15:20:11;;;;;;;21.67;17.17;;;24.90;62.50;;;;;;6168086;28;89304;-65
2024/01/31 15:23:13;;;;;;;22.45;16.73;;;24.90;62.50;;;;;;6158297;28;89111;-66
2024/01/31 15:26:16;;;;;;;20.63;16.30;;;24.90;62.50;;;;;;6160539;28;89099;-66
2024/01/31 15:29:18;;;;;;;22.83;16.67;;;24.90;62.50;;;;;;6159341;28;88337;-65
2024/01/31 15:32:19;;;;;;;23.48;16.55;;;24.90;62.50;;;;;;6158935;28;89314;-65
2024/01/31 15:35:23;;;;;;;21.75;15.55;;;24.90;62.50;;;;;;6148150;28;89080;-65
2024/01/31 15:38:25;;;;;;;18.98;15.40;;;24.90;62.40;;;;;;6163201;28;90036;-65
2024/01/31 15:41:27;;;;;;;19.20;15.00;;;24.90;62.40;;;;;;6160192;28;89117;-65
2024/01/31 15:44:29;;;;;;;20.73;15.65;;;24.90;62.40;;;;;;6150530;28;89048;-66